createdAt,value
2022-08-03T00:00:46.710Z,2.40
2022-08-03T00:01:46.710Z,2.50
2022-08-03T00:02:46.740Z,2.50
2022-08-03T00:03:46.713Z,2.50
2022-08-03T00:04:46.686Z,2.20
2022-08-03T00:06:03.766Z,2.50
2022-08-03T00:06:47.643Z,2.10
2022-08-03T00:07:46.644Z,2.20
2022-08-03T00:08:46.653Z,2.40
2022-08-03T00:09:46.627Z,2.10
2022-08-03T00:10:46.603Z,2.40
2022-08-03T00:11:46.595Z,2.30
2022-08-03T00:12:46.586Z,2.50
2022-08-03T00:13:46.603Z,2.40
2022-08-03T00:14:46.575Z,2.70
2022-08-03T00:15:46.555Z,2.40
2022-08-03T00:16:46.546Z,2.40
2022-08-03T00:17:52.757Z,2.40
2022-08-03T00:18:47.526Z,2.20
2022-08-03T00:19:46.529Z,2.50
2022-08-03T00:20:46.498Z,2.30
2022-08-03T00:21:46.487Z,2.50
2022-08-03T00:22:46.487Z,2.30
2022-08-03T00:23:51.527Z,2.50
2022-08-03T00:24:47.447Z,2.40
2022-08-03T00:25:46.449Z,2.20
2022-08-03T00:26:46.431Z,2.70
2022-08-03T00:27:47.780Z,2.30
2022-08-03T00:28:46.423Z,2.40
2022-08-03T00:30:00.060Z,2.20
2022-08-03T00:30:47.382Z,2.30
2022-08-03T00:31:59.517Z,2.30
2022-08-03T00:32:47.372Z,2.20
2022-08-03T00:33:59.073Z,2.40
2022-08-03T00:34:58.537Z,2.60
2022-08-03T00:35:51.034Z,2.40
2022-08-03T00:36:46.333Z,2.30
2022-08-03T00:37:46.313Z,2.50
2022-08-03T00:38:46.324Z,2.50
2022-08-03T00:39:46.335Z,2.10
2022-08-03T00:40:46.286Z,2.30
2022-08-03T00:41:46.265Z,2.40
2022-08-03T00:42:46.256Z,2.30
2022-08-03T00:43:46.267Z,2.60
2022-08-03T00:44:46.242Z,2.50
2022-08-03T00:45:46.227Z,2.30
2022-08-03T00:46:46.217Z,2.70
2022-08-03T00:47:46.205Z,2.50
2022-08-03T00:48:46.197Z,2.60
2022-08-03T00:49:46.187Z,2.70
2022-08-03T00:50:46.181Z,2.50
2022-08-03T00:51:46.157Z,2.40
2022-08-03T00:52:46.157Z,2.50
2022-08-03T00:53:46.202Z,2.60
2022-08-03T00:54:46.166Z,2.60
2022-08-03T00:55:46.119Z,2.40
2022-08-03T00:57:00.023Z,2.60
2022-08-03T00:57:47.089Z,2.30
2022-08-03T00:58:46.098Z,2.30
2022-08-03T00:59:46.080Z,2.80
2022-08-03T01:00:46.089Z,2.70
2022-08-03T01:01:46.079Z,2.50
2022-08-03T01:02:46.051Z,2.20
2022-08-03T01:03:46.031Z,2.50
2022-08-03T01:04:46.021Z,2.30
2022-08-03T01:05:46.021Z,2.60
2022-08-03T01:06:46.003Z,2.20
2022-08-03T01:07:45.983Z,2.70
2022-08-03T01:08:45.991Z,2.30
2022-08-03T01:09:45.956Z,2.40
2022-08-03T01:10:45.954Z,2.80
2022-08-03T01:11:59.965Z,2.50
2022-08-03T01:12:46.924Z,2.70
2022-08-03T01:14:04.098Z,2.30
2022-08-03T01:14:46.904Z,2.70
2022-08-03T01:15:45.897Z,2.60
2022-08-03T01:16:45.885Z,2.80
2022-08-03T01:17:47.176Z,2.70
2022-08-03T01:18:45.872Z,2.70
2022-08-03T01:19:45.855Z,3.30
2022-08-03T01:20:45.848Z,2.60
2022-08-03T01:21:45.828Z,2.80
2022-08-03T01:22:45.819Z,2.80
2022-08-03T01:23:45.819Z,2.70
2022-08-03T01:24:45.798Z,2.70
2022-08-03T01:25:45.799Z,2.50
2022-08-03T01:26:45.779Z,2.80
2022-08-03T01:27:45.758Z,2.60
2022-08-03T01:28:45.779Z,2.40
2022-08-03T01:29:45.739Z,3.00
2022-08-03T01:30:45.728Z,2.40
2022-08-03T01:32:58.668Z,2.60
2022-08-03T01:33:00.126Z,2.50
2022-08-03T01:33:46.719Z,2.80
2022-08-03T01:34:45.690Z,2.50
2022-08-03T01:35:45.681Z,2.60
2022-08-03T01:36:45.670Z,2.60
2022-08-03T01:37:45.655Z,2.70
2022-08-03T01:38:45.663Z,2.50
2022-08-03T01:39:45.629Z,2.70
2022-08-03T01:40:45.623Z,2.70
2022-08-03T01:41:45.622Z,2.30
2022-08-03T01:42:45.603Z,3.20
2022-08-03T01:44:27.143Z,2.60
2022-08-03T01:44:46.575Z,2.50
2022-08-03T01:45:45.564Z,2.90
2022-08-03T01:46:47.540Z,2.80
2022-08-03T01:47:45.545Z,2.90
2022-08-03T01:48:45.544Z,3.30
2022-08-03T01:49:45.596Z,2.50
2022-08-03T01:50:45.516Z,2.90
2022-08-03T01:52:04.335Z,2.80
2022-08-03T01:52:46.489Z,2.70
2022-08-03T01:53:45.498Z,2.50
2022-08-03T01:54:45.467Z,2.60
2022-08-03T01:55:45.459Z,2.60
2022-08-03T01:56:45.446Z,2.50
2022-08-03T01:58:06.314Z,2.70
2022-08-03T01:58:46.446Z,2.60
2022-08-03T01:59:45.446Z,2.80
2022-08-03T02:00:45.468Z,3.00
2022-08-03T02:02:15.593Z,2.80
2022-08-03T02:02:46.414Z,2.60
2022-08-03T02:03:59.805Z,2.60
2022-08-03T02:04:46.368Z,2.60
2022-08-03T02:05:45.341Z,2.60
2022-08-03T02:07:02.232Z,2.60
2022-08-03T02:07:46.323Z,2.80
2022-08-03T02:08:45.350Z,2.90
2022-08-03T02:09:45.300Z,2.70
2022-08-03T02:10:45.292Z,3.10
2022-08-03T02:11:45.282Z,3.00
2022-08-03T02:12:46.022Z,2.90
2022-08-03T02:13:45.360Z,3.00
2022-08-03T02:14:45.242Z,2.80
2022-08-03T02:15:45.243Z,2.90
2022-08-03T02:16:45.224Z,2.80
2022-08-03T02:17:45.221Z,2.60
2022-08-03T02:18:45.213Z,3.10
2022-08-03T02:19:45.206Z,3.00
2022-08-03T02:20:45.176Z,2.90
2022-08-03T02:21:57.172Z,2.90
2022-08-03T02:22:46.165Z,3.10
2022-08-03T02:23:45.164Z,3.00
2022-08-03T02:24:45.170Z,2.70
2022-08-03T02:25:46.126Z,2.80
2022-08-03T02:26:45.116Z,2.80
2022-08-03T02:27:45.106Z,2.70
2022-08-03T02:28:45.125Z,2.70
2022-08-03T02:29:45.087Z,3.00
2022-08-03T02:30:45.068Z,2.70
2022-08-03T02:31:45.070Z,2.60
2022-08-03T02:32:45.047Z,2.80
2022-08-03T02:33:45.050Z,2.60
2022-08-03T02:34:45.031Z,2.70
2022-08-03T02:35:45.028Z,3.30
2022-08-03T02:36:44.998Z,2.70
2022-08-03T02:37:45.138Z,3.00
2022-08-03T02:38:45.003Z,2.80
2022-08-03T02:39:44.969Z,2.70
2022-08-03T02:40:44.959Z,2.60
2022-08-03T02:41:44.961Z,2.80
2022-08-03T02:42:44.930Z,2.70
2022-08-03T02:44:06.083Z,2.70
2022-08-03T02:44:45.921Z,2.30
2022-08-03T02:45:45.595Z,2.70
2022-08-03T02:46:44.902Z,2.60
2022-08-03T02:47:53.227Z,2.80
2022-08-03T02:48:45.871Z,2.70
2022-08-03T02:49:50.876Z,2.60
2022-08-03T02:50:45.852Z,2.70
2022-08-03T02:51:44.844Z,2.40
2022-08-03T02:52:44.833Z,2.90
2022-08-03T02:53:44.824Z,2.50
2022-08-03T02:54:44.814Z,2.70
2022-08-03T02:55:45.954Z,2.40
2022-08-03T02:56:44.785Z,2.90
2022-08-03T02:57:44.774Z,2.80
2022-08-03T02:58:44.764Z,2.80
2022-08-03T02:59:44.776Z,2.60
2022-08-03T03:00:44.766Z,2.40
2022-08-03T03:01:44.736Z,2.60
2022-08-03T03:02:44.718Z,2.90
2022-08-03T03:03:45.146Z,2.70
2022-08-03T03:05:50.533Z,2.40
2022-08-03T03:05:53.053Z,2.60
2022-08-03T03:06:47.606Z,2.80
2022-08-03T03:07:52.046Z,2.80
2022-08-03T03:08:45.658Z,2.90
2022-08-03T03:09:44.658Z,2.90
2022-08-03T03:10:44.642Z,2.80
2022-08-03T03:11:44.630Z,3.10
2022-08-03T03:12:44.608Z,2.40
2022-08-03T03:13:44.610Z,2.50
2022-08-03T03:14:44.599Z,2.90
2022-08-03T03:15:44.580Z,2.60
2022-08-03T03:16:44.570Z,2.90
2022-08-03T03:17:45.560Z,2.60
2022-08-03T03:18:44.541Z,2.50
2022-08-03T03:19:44.553Z,2.80
2022-08-03T03:20:44.524Z,2.80
2022-08-03T03:21:44.512Z,2.30
2022-08-03T03:22:45.255Z,2.50
2022-08-03T03:23:44.504Z,2.50
2022-08-03T03:24:44.514Z,2.70
2022-08-03T03:25:44.473Z,2.70
2022-08-03T03:26:44.453Z,3.10
2022-08-03T03:27:44.444Z,2.60
2022-08-03T03:28:45.434Z,2.80
2022-08-03T03:29:44.451Z,2.90
2022-08-03T03:30:44.432Z,2.50
2022-08-03T03:31:44.415Z,2.50
2022-08-03T03:32:44.415Z,2.80
2022-08-03T03:33:44.407Z,2.70
2022-08-03T03:34:44.431Z,2.80
2022-08-03T03:35:44.359Z,2.50
2022-08-03T03:36:44.346Z,2.70
2022-08-03T03:37:44.337Z,2.60
2022-08-03T03:38:44.338Z,2.70
2022-08-03T03:39:44.325Z,2.90
2022-08-03T03:40:44.306Z,2.70
2022-08-03T03:41:44.297Z,2.90
2022-08-03T03:42:44.291Z,3.00
2022-08-03T03:43:44.269Z,2.70
2022-08-03T03:44:44.279Z,2.60
2022-08-03T03:45:44.246Z,2.70
2022-08-03T03:46:44.248Z,2.80
2022-08-03T03:47:44.229Z,3.10
2022-08-03T03:48:44.220Z,2.60
2022-08-03T03:49:44.219Z,3.00
2022-08-03T03:50:44.200Z,2.70
2022-08-03T03:51:44.181Z,2.70
2022-08-03T03:52:44.181Z,2.80
2022-08-03T03:53:44.161Z,2.80
2022-08-03T03:54:44.161Z,3.00
2022-08-03T03:56:01.665Z,2.60
2022-08-03T03:56:45.134Z,2.90
2022-08-03T03:57:44.112Z,3.00
2022-08-03T03:58:44.112Z,3.10
2022-08-03T03:59:44.122Z,2.90
2022-08-03T04:00:44.130Z,2.60
2022-08-03T04:01:44.074Z,2.70
2022-08-03T04:02:44.064Z,3.10
2022-08-03T04:03:44.065Z,3.10
2022-08-03T04:04:44.053Z,2.60
2022-08-03T04:05:45.927Z,2.70
2022-08-03T04:06:44.014Z,2.60
2022-08-03T04:07:44.007Z,2.70
2022-08-03T04:08:44.006Z,2.80
2022-08-03T04:09:45.005Z,3.10
2022-08-03T04:10:43.977Z,3.30
2022-08-03T04:11:43.966Z,3.10
2022-08-03T04:12:50.605Z,3.10
2022-08-03T04:13:44.946Z,2.90
2022-08-03T04:14:43.956Z,3.50
2022-08-03T04:15:43.930Z,3.00
2022-08-03T04:16:44.160Z,3.00
2022-08-03T04:17:43.889Z,3.00
2022-08-03T04:18:43.889Z,3.00
2022-08-03T04:19:43.908Z,2.90
2022-08-03T04:20:43.869Z,2.50
2022-08-03T04:21:43.849Z,3.00
2022-08-03T04:22:43.840Z,3.20
2022-08-03T04:23:43.832Z,3.20
2022-08-03T04:24:43.819Z,3.30
2022-08-03T04:25:43.829Z,3.00
2022-08-03T04:26:43.800Z,3.00
2022-08-03T04:27:43.781Z,2.90
2022-08-03T04:28:43.809Z,3.00
2022-08-03T04:29:48.152Z,3.30
2022-08-03T04:30:43.840Z,3.00
2022-08-03T04:31:43.752Z,3.00
2022-08-03T04:32:45.900Z,2.80
2022-08-03T04:33:43.724Z,3.10
2022-08-03T04:34:43.712Z,3.20
2022-08-03T04:36:01.926Z,2.80
2022-08-03T04:36:44.683Z,2.70
2022-08-03T04:37:43.673Z,2.80
2022-08-03T04:38:43.671Z,2.90
2022-08-03T04:39:43.652Z,2.60
2022-08-03T04:40:43.654Z,3.00
2022-08-03T04:42:07.783Z,2.80
2022-08-03T04:42:44.627Z,3.20
2022-08-03T04:43:43.615Z,3.30
2022-08-03T04:44:43.596Z,3.20
2022-08-03T04:45:43.596Z,3.00
2022-08-03T04:46:46.771Z,2.70
2022-08-03T04:47:44.568Z,3.20
2022-08-03T04:48:44.735Z,3.00
2022-08-03T04:49:43.647Z,3.10
2022-08-03T04:50:43.577Z,3.10
2022-08-03T04:51:43.548Z,2.80
2022-08-03T04:52:43.515Z,3.50
2022-08-03T04:53:43.501Z,2.90
2022-08-03T04:54:44.351Z,3.10
2022-08-03T04:55:44.489Z,3.10
2022-08-03T04:56:43.472Z,2.80
2022-08-03T04:57:43.451Z,2.90
2022-08-03T04:58:43.451Z,3.00
2022-08-03T04:59:43.441Z,3.10
2022-08-03T05:00:43.441Z,2.80
2022-08-03T05:01:43.463Z,3.00
2022-08-03T05:02:43.401Z,2.80
2022-08-03T05:03:43.384Z,3.00
2022-08-03T05:04:43.383Z,2.90
2022-08-03T05:05:50.101Z,3.30
2022-08-03T05:06:47.874Z,3.40
2022-08-03T05:07:43.352Z,3.20
2022-08-03T05:08:46.362Z,2.90
2022-08-03T05:09:52.170Z,2.90
2022-08-03T05:10:44.346Z,3.30
2022-08-03T05:11:43.374Z,2.80
2022-08-03T05:12:43.300Z,3.00
2022-08-03T05:13:43.289Z,3.30
2022-08-03T05:14:43.277Z,3.30
2022-08-03T05:15:43.413Z,3.30
2022-08-03T05:16:43.277Z,3.40
2022-08-03T05:17:43.242Z,3.50
2022-08-03T05:18:43.231Z,3.20
2022-08-03T05:19:43.217Z,4.00
2022-08-03T05:20:43.220Z,3.30
2022-08-03T05:21:52.336Z,3.60
2022-08-03T05:22:44.187Z,3.40
2022-08-03T05:23:43.178Z,3.00
2022-08-03T05:24:43.210Z,2.90
2022-08-03T05:25:46.156Z,3.10
2022-08-03T05:26:44.150Z,3.40
2022-08-03T05:27:43.120Z,3.20
2022-08-03T05:28:50.656Z,3.40
2022-08-03T05:29:44.101Z,3.30
2022-08-03T05:30:43.111Z,3.20
2022-08-03T05:31:43.082Z,3.20
2022-08-03T05:32:43.087Z,3.00
2022-08-03T05:33:43.062Z,3.00
2022-08-03T05:34:43.052Z,3.20
2022-08-03T05:35:57.604Z,3.60
2022-08-03T05:36:44.032Z,3.40
2022-08-03T05:37:54.713Z,3.50
2022-08-03T05:38:44.014Z,3.50
2022-08-03T05:39:42.993Z,3.50
2022-08-03T05:40:56.657Z,3.50
2022-08-03T05:41:43.965Z,3.50
2022-08-03T05:42:42.964Z,3.30
2022-08-03T05:43:42.958Z,3.40
2022-08-03T05:44:42.957Z,3.40
2022-08-03T05:45:42.946Z,3.40
2022-08-03T05:46:42.933Z,3.50
2022-08-03T05:47:42.903Z,3.10
2022-08-03T05:48:42.900Z,3.20
2022-08-03T05:49:42.926Z,3.20
2022-08-03T05:50:43.054Z,3.30
2022-08-03T05:51:42.857Z,3.40
2022-08-03T05:52:42.860Z,3.40
2022-08-03T05:53:42.890Z,3.10
2022-08-03T05:54:56.374Z,3.30
2022-08-03T05:55:43.829Z,3.50
2022-08-03T05:56:42.809Z,3.20
2022-08-03T05:57:42.791Z,3.10
2022-08-03T05:58:42.790Z,3.00
2022-08-03T05:59:54.726Z,3.10
2022-08-03T06:00:43.784Z,3.40
2022-08-03T06:01:42.767Z,3.20
2022-08-03T06:02:42.750Z,3.30
2022-08-03T06:03:42.786Z,2.90
2022-08-03T06:04:42.723Z,3.30
2022-08-03T06:05:44.789Z,3.10
2022-08-03T06:06:43.807Z,3.00
2022-08-03T06:07:42.686Z,2.90
2022-08-03T06:08:42.676Z,3.10
2022-08-03T06:10:35.970Z,2.80
2022-08-03T06:10:43.668Z,2.70
2022-08-03T06:11:42.647Z,3.00
2022-08-03T06:12:42.626Z,2.80
2022-08-03T06:13:42.641Z,3.00
2022-08-03T06:14:42.614Z,2.50
2022-08-03T06:15:42.607Z,3.10
2022-08-03T06:16:42.609Z,2.90
2022-08-03T06:17:42.577Z,2.80
2022-08-03T06:18:42.567Z,2.70
2022-08-03T06:19:42.664Z,2.60
2022-08-03T06:20:42.549Z,2.50
2022-08-03T06:21:42.539Z,3.00
2022-08-03T06:22:50.943Z,2.80
2022-08-03T06:23:52.784Z,2.70
2022-08-03T06:24:52.255Z,2.60
2022-08-03T06:25:43.491Z,2.50
2022-08-03T06:26:42.492Z,2.70
2022-08-03T06:27:42.463Z,2.30
2022-08-03T06:28:51.482Z,2.80
2022-08-03T06:29:43.534Z,2.60
2022-08-03T06:30:42.434Z,2.40
2022-08-03T06:31:42.445Z,2.40
2022-08-03T06:32:42.415Z,2.60
2022-08-03T06:33:48.312Z,2.50
2022-08-03T06:34:43.396Z,2.30
2022-08-03T06:35:42.516Z,2.60
2022-08-03T06:36:42.377Z,2.30
2022-08-03T06:37:42.365Z,2.60
2022-08-03T06:38:42.357Z,2.20
2022-08-03T06:39:42.335Z,2.50
2022-08-03T06:40:42.335Z,2.30
2022-08-03T06:41:44.983Z,2.50
2022-08-03T06:42:42.307Z,2.50
2022-08-03T06:44:03.050Z,2.40
2022-08-03T06:44:43.292Z,2.10
2022-08-03T06:45:42.280Z,2.70
2022-08-03T06:46:42.316Z,2.20
2022-08-03T06:47:42.260Z,2.60
2022-08-03T06:48:42.262Z,2.00
2022-08-03T06:49:42.380Z,2.20
2022-08-03T06:50:42.574Z,2.10
2022-08-03T06:52:03.081Z,2.30
2022-08-03T06:52:43.208Z,2.40
2022-08-03T06:53:42.192Z,2.30
2022-08-03T06:54:42.192Z,2.30
2022-08-03T06:55:42.498Z,2.10
2022-08-03T06:56:42.168Z,2.20
2022-08-03T06:57:42.148Z,2.40
2022-08-03T06:58:42.137Z,2.40
2022-08-03T07:00:10.527Z,2.10
2022-08-03T07:00:43.109Z,2.00
2022-08-03T07:01:42.159Z,2.30
2022-08-03T07:02:42.091Z,2.10
2022-08-03T07:03:52.369Z,2.00
2022-08-03T07:04:43.070Z,2.30
2022-08-03T07:05:42.061Z,1.90
2022-08-03T07:06:42.061Z,2.30
2022-08-03T07:07:42.042Z,2.20
2022-08-03T07:08:42.032Z,2.30
2022-08-03T07:09:42.013Z,2.50
2022-08-03T07:10:43.042Z,2.10
2022-08-03T07:11:42.065Z,1.80
2022-08-03T07:12:52.789Z,2.20
2022-08-03T07:13:42.987Z,2.20
2022-08-03T07:14:41.978Z,2.10
2022-08-03T07:15:55.654Z,2.10
2022-08-03T07:16:42.946Z,2.20
2022-08-03T07:17:41.939Z,2.50
2022-08-03T07:18:41.927Z,2.00
2022-08-03T07:19:41.907Z,2.40
2022-08-03T07:20:41.927Z,2.20
2022-08-03T07:21:41.896Z,1.80
2022-08-03T07:22:41.888Z,2.00
2022-08-03T07:23:41.870Z,2.10
2022-08-03T07:24:41.861Z,2.20
2022-08-03T07:25:41.861Z,2.10
2022-08-03T07:26:41.860Z,2.00
2022-08-03T07:27:41.840Z,2.00
2022-08-03T07:28:41.821Z,1.90
2022-08-03T07:29:41.841Z,2.20
2022-08-03T07:30:41.823Z,2.20
2022-08-03T07:31:41.784Z,2.20
2022-08-03T07:32:50.270Z,2.00
2022-08-03T07:33:42.766Z,1.90
2022-08-03T07:34:41.763Z,2.00
2022-08-03T07:35:41.749Z,2.20
2022-08-03T07:36:41.822Z,2.10
2022-08-03T07:37:41.729Z,2.10
2022-08-03T07:38:42.718Z,2.10
2022-08-03T07:39:41.764Z,2.20
2022-08-03T07:40:46.018Z,2.30
2022-08-03T07:41:41.690Z,2.10
2022-08-03T07:42:41.688Z,2.10
2022-08-03T07:43:41.729Z,2.20
2022-08-03T07:44:41.669Z,2.50
2022-08-03T07:45:41.653Z,2.00
2022-08-03T07:46:41.643Z,1.80
2022-08-03T07:47:41.629Z,2.00
2022-08-03T07:48:41.621Z,2.00
2022-08-03T07:49:41.682Z,2.10
2022-08-03T07:50:41.613Z,1.90
2022-08-03T07:51:41.593Z,1.80
2022-08-03T07:52:41.586Z,2.00
2022-08-03T07:53:47.195Z,2.00
2022-08-03T07:54:42.569Z,1.90
2022-08-03T07:55:41.549Z,1.90
2022-08-03T07:56:41.557Z,1.90
2022-08-03T07:57:41.516Z,1.80
2022-08-03T07:58:41.546Z,2.00
2022-08-03T07:59:56.788Z,1.70
2022-08-03T08:00:42.497Z,1.90
2022-08-03T08:01:41.556Z,1.90
2022-08-03T08:02:41.489Z,1.90
2022-08-03T08:03:52.981Z,1.80
2022-08-03T08:04:42.460Z,1.90
2022-08-03T08:05:41.440Z,2.00
2022-08-03T08:06:41.451Z,2.00
2022-08-03T08:07:41.434Z,1.80
2022-08-03T08:08:41.422Z,2.00
2022-08-03T08:09:41.403Z,2.00
2022-08-03T08:10:41.403Z,2.20
2022-08-03T08:11:41.405Z,2.00
2022-08-03T08:12:41.385Z,2.00
2022-08-03T08:13:41.365Z,2.00
2022-08-03T08:14:41.362Z,2.00
2022-08-03T08:15:42.565Z,2.30
2022-08-03T08:16:41.355Z,1.50
2022-08-03T08:17:41.326Z,2.10
2022-08-03T08:18:41.327Z,2.00
2022-08-03T08:19:41.471Z,1.90
2022-08-03T08:20:42.508Z,2.00
2022-08-03T08:21:53.010Z,1.80
2022-08-03T08:22:42.281Z,1.80
2022-08-03T08:23:42.336Z,2.30
2022-08-03T08:24:41.268Z,1.60
2022-08-03T08:25:41.258Z,1.90
2022-08-03T08:26:41.262Z,1.80
2022-08-03T08:28:31.597Z,2.00
2022-08-03T08:28:42.227Z,1.70
2022-08-03T08:29:45.860Z,1.80
2022-08-03T08:30:42.200Z,1.70
2022-08-03T08:31:41.213Z,1.80
2022-08-03T08:32:41.192Z,1.90
2022-08-03T08:34:42.166Z,2.00
2022-08-03T08:35:41.155Z,1.70
2022-08-03T08:36:41.194Z,2.10
2022-08-03T08:37:41.267Z,2.00
2022-08-03T08:38:41.212Z,1.90
2022-08-03T08:39:41.117Z,1.90
2022-08-03T08:40:41.117Z,1.70
2022-08-03T08:41:45.912Z,1.70
2022-08-03T08:42:51.888Z,1.70
2022-08-03T08:43:42.121Z,1.80
2022-08-03T08:44:41.101Z,1.70
2022-08-03T08:45:41.080Z,1.50
2022-08-03T08:46:41.059Z,1.50
2022-08-03T08:47:51.495Z,1.90
2022-08-03T08:48:42.043Z,1.60
2022-08-03T08:49:46.484Z,1.50
2022-08-03T08:50:42.022Z,1.80
2022-08-03T08:51:54.799Z,1.40
2022-08-03T08:52:42.012Z,1.60
2022-08-03T08:53:41.005Z,1.80
2022-08-03T08:54:40.986Z,1.70
2022-08-03T08:55:59.097Z,1.60
2022-08-03T08:56:41.964Z,1.60
2022-08-03T08:57:43.218Z,1.60
2022-08-03T08:58:40.956Z,2.00
2022-08-03T08:59:48.481Z,1.50
2022-08-03T09:00:41.946Z,1.70
2022-08-03T09:01:40.927Z,1.70
2022-08-03T09:02:40.927Z,1.50
2022-08-03T09:03:41.036Z,1.80
2022-08-03T09:04:40.910Z,1.50
2022-08-03T09:05:55.325Z,1.40
2022-08-03T09:06:53.730Z,1.70
2022-08-03T09:07:41.859Z,1.60
2022-08-03T09:08:40.900Z,1.70
2022-08-03T09:10:10.543Z,1.60
2022-08-03T09:10:41.845Z,1.50
2022-08-03T09:11:54.517Z,1.60
2022-08-03T09:12:42.753Z,1.60
2022-08-03T09:13:40.823Z,1.60
2022-08-03T09:14:54.862Z,1.60
2022-08-03T09:15:41.784Z,1.50
2022-08-03T09:16:41.790Z,1.50
2022-08-03T09:17:40.777Z,1.50
2022-08-03T09:18:40.788Z,1.70
2022-08-03T09:19:40.765Z,1.70
2022-08-03T09:20:41.750Z,1.70
2022-08-03T09:21:40.746Z,1.50
2022-08-03T09:22:40.769Z,1.50
2022-08-03T09:23:51.875Z,1.60
2022-08-03T09:24:41.901Z,1.60
2022-08-03T09:25:40.698Z,1.50
2022-08-03T09:26:40.699Z,1.80
2022-08-03T09:27:40.679Z,1.60
2022-08-03T09:29:01.385Z,1.80
2022-08-03T09:29:41.681Z,1.50
2022-08-03T09:30:40.670Z,1.40
2022-08-03T09:31:43.534Z,1.60
2022-08-03T09:32:40.641Z,1.50
2022-08-03T09:33:40.639Z,1.60
2022-08-03T09:34:40.613Z,1.60
2022-08-03T09:35:57.822Z,1.70
2022-08-03T09:36:41.593Z,1.40
2022-08-03T09:38:12.689Z,1.70
2022-08-03T09:38:41.596Z,1.40
2022-08-03T09:39:42.440Z,1.60
2022-08-03T09:40:40.555Z,1.60
2022-08-03T09:41:40.556Z,1.40
2022-08-03T09:42:40.545Z,2.00
2022-08-03T09:43:40.545Z,1.60
2022-08-03T09:44:40.535Z,1.50
2022-08-03T09:45:40.537Z,1.50
2022-08-03T09:46:40.508Z,1.50
2022-08-03T09:47:44.707Z,1.50
2022-08-03T09:48:40.507Z,1.40
2022-08-03T09:49:41.027Z,1.40
2022-08-03T09:50:40.488Z,1.70
2022-08-03T09:52:32.047Z,1.60
2022-08-03T09:52:49.630Z,1.40
2022-08-03T09:53:41.471Z,1.40
2022-08-03T09:54:41.453Z,1.70
2022-08-03T09:56:33.720Z,1.40
2022-08-03T09:56:41.433Z,1.30
2022-08-03T09:57:40.422Z,1.50
2022-08-03T09:58:40.435Z,1.20
2022-08-03T09:59:41.151Z,1.50
2022-08-03T10:00:40.443Z,1.30
2022-08-03T10:01:40.461Z,1.70
2022-08-03T10:02:40.395Z,1.40
2022-08-03T10:03:47.005Z,1.40
2022-08-03T10:04:41.455Z,1.30
2022-08-03T10:05:40.370Z,1.50
2022-08-03T10:06:40.344Z,1.80
2022-08-03T10:07:40.342Z,1.40
2022-08-03T10:08:41.347Z,1.50
2022-08-03T10:09:40.325Z,1.40
2022-08-03T10:10:40.317Z,1.50
2022-08-03T10:11:42.003Z,1.40
2022-08-03T10:12:40.306Z,1.40
2022-08-03T10:13:40.308Z,1.50
2022-08-03T10:14:40.276Z,1.30
2022-08-03T10:16:21.561Z,1.30
2022-08-03T10:16:41.269Z,1.50
2022-08-03T10:17:40.430Z,1.40
2022-08-03T10:18:40.251Z,1.30
2022-08-03T10:19:40.260Z,1.30
2022-08-03T10:20:40.273Z,1.50
2022-08-03T13:15:50.791Z,1.90
2022-08-03T14:17:16.746Z,1.60
2022-08-03T14:18:29.345Z,1.40
2022-08-03T14:19:17.479Z,1.30
2022-08-03T14:20:36.787Z,1.10
2022-08-03T14:21:17.478Z,1.10
2022-08-03T14:22:17.247Z,1.00
2022-08-03T14:23:17.068Z,1.20
2022-08-03T14:24:16.535Z,1.10
2022-08-03T14:25:16.565Z,1.40
2022-08-03T14:26:16.459Z,1.40
2022-08-03T14:27:16.761Z,1.20
2022-08-03T14:28:17.005Z,1.40
2022-08-03T14:29:16.804Z,1.50
2022-08-03T14:30:16.392Z,1.60
2022-08-03T14:32:09.230Z,1.10
2022-08-03T14:32:17.399Z,1.10
2022-08-03T14:33:16.407Z,1.10
2022-08-03T14:34:16.502Z,1.20
2022-08-03T14:35:16.530Z,1.10
2022-08-03T14:36:18.093Z,1.20
2022-08-03T14:37:16.358Z,1.50
2022-08-03T14:38:16.376Z,1.00
2022-08-03T14:39:16.391Z,1.30
2022-08-03T14:40:16.912Z,1.00
2022-08-03T14:41:19.872Z,1.10
2022-08-03T14:42:16.368Z,1.50
2022-08-03T14:43:16.316Z,1.10
2022-08-03T14:44:16.298Z,1.20
2022-08-03T14:45:20.090Z,1.10
2022-08-03T14:46:16.287Z,0.90
2022-08-03T14:47:16.289Z,1.00
2022-08-03T14:50:30.725Z,1.10
2022-08-03T14:50:38.587Z,1.10
2022-08-03T14:50:38.827Z,1.20
2022-08-03T14:51:17.396Z,1.10
2022-08-03T14:52:16.252Z,1.20
2022-08-03T14:53:16.276Z,1.00
2022-08-03T14:54:17.962Z,1.20
2022-08-03T14:55:17.447Z,1.30
2022-08-03T14:56:16.192Z,1.20
2022-08-03T14:57:16.200Z,1.50
2022-08-03T14:58:19.358Z,0.90
2022-08-03T14:59:16.153Z,1.30
2022-08-03T15:00:17.022Z,1.10
2022-08-03T15:02:03.397Z,1.20
2022-08-03T15:02:23.321Z,1.00
2022-08-03T15:03:17.632Z,1.00
2022-08-03T15:04:16.489Z,1.10
2022-08-03T15:05:16.612Z,1.30
2022-08-03T15:06:16.096Z,1.20
2022-08-03T15:07:16.100Z,1.20
2022-08-03T15:08:16.109Z,1.30
2022-08-03T15:09:23.614Z,1.00
2022-08-03T15:10:17.538Z,1.00
2022-08-03T15:11:16.069Z,1.10
2022-08-03T15:12:16.861Z,1.10
2022-08-03T15:13:16.993Z,1.10
2022-08-03T15:14:16.930Z,0.90
2022-08-03T15:15:16.817Z,1.00
2022-08-03T15:16:16.374Z,1.10
2022-08-03T15:17:16.029Z,0.90
2022-08-03T15:18:16.088Z,1.20
2022-08-03T15:20:03.978Z,1.30
2022-08-03T15:20:28.718Z,0.90
2022-08-03T15:21:46.047Z,0.90
2022-08-03T15:22:16.943Z,0.80
2022-08-03T15:23:16.011Z,1.00
2022-08-03T15:24:16.013Z,0.90
2022-08-03T15:26:31.646Z,1.00
2022-08-03T15:26:32.866Z,1.10
2022-08-03T15:27:16.894Z,0.90
2022-08-03T15:28:15.978Z,1.00
2022-08-03T15:30:05.796Z,1.00
2022-08-03T15:30:16.898Z,0.90
2022-08-03T15:31:18.936Z,1.10
2022-08-03T15:32:15.880Z,1.00
2022-08-03T15:33:16.547Z,1.00
2022-08-03T15:34:17.311Z,1.30
2022-08-03T15:35:16.886Z,1.10
2022-08-03T15:36:15.931Z,1.30
2022-08-03T15:37:16.747Z,1.20
2022-08-03T15:38:15.865Z,1.10
2022-08-03T15:39:16.098Z,1.10
2022-08-03T15:40:16.274Z,1.10
2022-08-03T15:41:15.960Z,1.30
2022-08-03T15:42:15.932Z,1.10
2022-08-03T15:43:15.772Z,1.10
2022-08-03T15:44:15.904Z,0.90
2022-08-03T15:45:17.769Z,0.90
2022-08-03T15:46:29.247Z,1.50
2022-08-03T15:47:17.827Z,1.00
2022-08-03T15:48:15.716Z,1.10
2022-08-03T15:49:15.722Z,1.10
2022-08-03T15:50:15.819Z,1.00
2022-08-03T15:51:15.728Z,1.10
2022-08-03T15:52:15.779Z,1.50
2022-08-03T15:53:15.667Z,0.80
2022-08-03T15:54:15.726Z,1.10
2022-08-03T15:55:17.298Z,1.10
2022-08-03T15:56:18.696Z,1.10
2022-08-03T15:57:15.613Z,1.30
2022-08-03T15:59:04.856Z,1.00
2022-08-03T15:59:16.603Z,1.40
2022-08-03T16:00:16.354Z,1.00
2022-08-03T16:01:19.625Z,0.90
2022-08-03T16:02:15.895Z,0.90
2022-08-03T16:03:16.415Z,1.20
2022-08-03T16:04:18.834Z,1.30
2022-08-03T16:05:15.573Z,1.00
2022-08-03T16:06:16.055Z,1.30
2022-08-03T16:07:16.027Z,1.10
2022-08-03T16:08:15.610Z,1.00
2022-08-03T16:09:23.810Z,1.00
2022-08-03T16:10:16.490Z,1.40
2022-08-03T16:11:16.359Z,1.90
2022-08-03T16:12:16.911Z,1.10
2022-08-03T16:13:15.500Z,0.90
2022-08-03T16:14:32.181Z,1.00
2022-08-03T16:15:16.903Z,0.90
2022-08-03T16:16:15.471Z,0.90
2022-08-03T16:17:15.432Z,1.40
2022-08-03T16:18:15.624Z,1.10
2022-08-03T16:19:15.492Z,1.10
2022-08-03T16:20:34.465Z,1.20
2022-08-03T16:21:16.984Z,1.10
2022-08-03T16:22:19.642Z,1.10
2022-08-03T16:23:15.404Z,1.50
2022-08-03T16:24:17.520Z,1.50
2022-08-03T16:25:16.571Z,1.10
2022-08-03T16:26:15.416Z,1.10
2022-08-03T16:27:36.720Z,1.20
2022-08-03T16:28:16.605Z,1.10
2022-08-03T16:29:22.456Z,1.20
2022-08-03T16:30:16.357Z,1.00
2022-08-03T16:31:16.038Z,1.50
2022-08-03T16:32:16.367Z,1.20
2022-08-03T16:33:16.708Z,1.00
2022-08-03T16:34:15.299Z,1.10
2022-08-03T16:35:19.577Z,1.00
2022-08-03T16:36:16.668Z,1.20
2022-08-03T16:37:37.506Z,1.40
2022-08-03T16:38:19.184Z,1.20
2022-08-03T16:39:15.284Z,1.30
2022-08-03T16:40:19.133Z,1.00
2022-08-03T16:41:16.176Z,2.10
2022-08-03T16:42:15.536Z,1.40
2022-08-03T16:43:18.261Z,1.30
2022-08-03T16:44:16.126Z,1.10
2022-08-03T16:45:16.535Z,1.40
2022-08-03T16:46:15.222Z,1.20
2022-08-03T16:47:22.129Z,1.40
2022-08-03T16:48:16.187Z,1.10
2022-08-03T16:49:52.977Z,1.40
2022-08-03T16:50:19.915Z,1.40
2022-08-03T16:51:15.088Z,1.40
2022-08-03T16:52:16.858Z,1.30
2022-08-03T16:53:16.486Z,1.40
2022-08-03T16:54:15.068Z,1.20
2022-08-03T16:55:15.329Z,1.30
2022-08-03T16:56:15.194Z,1.40
2022-08-03T16:57:15.141Z,2.00
2022-08-03T16:58:15.761Z,1.30
2022-08-03T16:59:15.863Z,1.20
2022-08-03T17:00:32.886Z,1.60
2022-08-03T17:01:21.500Z,2.00
2022-08-03T17:02:17.396Z,1.30
2022-08-03T17:03:20.389Z,1.40
2022-08-03T17:04:16.093Z,1.40
2022-08-03T17:05:15.187Z,1.30
2022-08-03T17:06:15.016Z,1.40
2022-08-03T17:07:14.914Z,1.90
2022-08-03T17:08:15.054Z,1.80
2022-08-03T17:09:14.886Z,1.50
2022-08-03T17:10:14.880Z,1.40
2022-08-03T17:11:15.888Z,1.50
2022-08-03T17:12:15.292Z,1.50
2022-08-03T17:13:20.752Z,1.30
2022-08-03T17:14:16.020Z,1.30